Terminal Aerodrome Forecast
Issued by NWS Houston/Galveston, TX

Home | Current Version | Previous Version | Text Only | Print | Product List | Glossary On
Versions: 1 2 3 4 5 6 7 8 9 10 11 12 13 14 15 16 17 18 19 20 21 22 23 24 25 26 27 28 29 30 31 32 33 34 35 36 37 38 39 40 41 42 43 44 45 46 47 48 49 50
000
FTUS44 KHGX 260202 AAA
TAFGLS
TAF AMD
KGLS 260202Z 2602/2624 07010KT P6SM VCSH FEW090 SCT120
      TEMPO 2602/2605 -RA
     FM260500 13013KT P6SM FEW020 BKN040
     FM261200 14011KT P6SM VCTS BKN020 BKN035CB
     FM261700 13010KT P6SM VCTS SCT025 BKN035CB=

USA.gov is the U.S. government's official web portal to all federal, state and local government web resources and services.